Time;durP1;ratioP1;P1;durP2;ratioP2;P2;SDS_P1;SDS_P2;PMS_P1;PMS_P2;Temp;Humidity;BMP_temperature;BMP_pressure;BME280_temperature;BME280_humidity;BME280_pressure;Samples;Min_cycle;Max_cycle;Signal;HPM_P1;HPM_P2
2022/01/03 00:00:45;;;;;;;6.60;4.20;;;10.90;99.90;;;;;;640582;221;26584;-80
2022/01/03 00:03:12;;;;;;;6.53;4.03;;;10.90;99.90;;;;;;640316;224;26511;-80
2022/01/03 00:05:39;;;;;;;4.97;4.20;;;11.00;99.90;;;;;;640583;222;26599;-80
2022/01/03 00:08:07;;;;;;;6.27;4.20;;;11.20;99.90;;;;;;640662;224;26771;-80
2022/01/03 00:10:34;;;;;;;4.80;4.30;;;11.10;99.90;;;;;;640648;221;26588;-79
2022/01/03 00:13:01;;;;;;;5.17;4.50;;;11.10;99.90;;;;;;640754;224;26515;-80
2022/01/03 00:15:29;;;;;;;4.20;3.80;;;11.20;99.90;;;;;;640658;224;26581;-79
2022/01/03 00:17:57;;;;;;;4.67;3.87;;;11.20;99.90;;;;;;640725;224;26472;-79
2022/01/03 00:20:26;;;;;;;5.80;4.10;;;11.10;99.90;;;;;;640738;221;26600;-81
2022/01/03 00:22:56;;;;;;;6.03;4.47;;;11.00;99.90;;;;;;640533;224;26734;-80
2022/01/03 00:25:23;;;;;;;4.60;4.17;;;10.90;99.90;;;;;;640320;224;26512;-79
2022/01/03 00:27:53;;;;;;;5.83;3.67;;;10.90;99.90;;;;;;640559;224;26766;-80
2022/01/03 00:30:21;;;;;;;7.60;3.97;;;11.00;99.90;;;;;;640028;224;26536;-79
2022/01/03 00:32:46;;;;;;;3.90;3.60;;;11.10;99.90;;;;;;642292;222;26545;-79
2022/01/03 00:35:13;;;;;;;4.40;4.00;;;11.10;99.90;;;;;;642442;223;26483;-79
2022/01/03 00:37:42;;;;;;;4.03;3.63;;;11.20;99.90;;;;;;641991;224;26770;-79
2022/01/03 00:40:08;;;;;;;3.73;3.43;;;11.10;99.90;;;;;;641824;219;26578;-79
2022/01/03 00:42:35;;;;;;;5.23;3.90;;;11.10;99.90;;;;;;641725;223;26975;-79
2022/01/03 00:45:03;;;;;;;4.30;3.90;;;11.20;99.90;;;;;;641635;223;26517;-77
2022/01/03 00:47:33;;;;;;;4.50;3.60;;;11.00;99.90;;;;;;641231;224;26761;-76
2022/01/03 00:50:02;;;;;;;4.97;4.07;;;11.10;99.90;;;;;;640954;224;26610;-76
2022/01/03 00:52:29;;;;;;;4.60;3.73;;;11.10;99.90;;;;;;640761;223;26819;-76
2022/01/03 00:54:57;;;;;;;4.73;3.57;;;11.10;99.90;;;;;;640930;224;26547;-76
2022/01/03 00:57:40;;;;;;;3.83;3.53;;;11.10;99.90;;;;;;640779;223;26836;-77
2022/01/03 01:00:09;;;;;;;4.40;3.73;;;11.20;99.90;;;;;;638233;223;26656;-76
2022/01/03 01:02:36;;;;;;;3.93;3.53;;;11.20;99.90;;;;;;640772;218;26901;-77
2022/01/03 01:05:04;;;;;;;5.07;3.67;;;11.00;99.90;;;;;;640793;223;26540;-76
2022/01/03 01:07:31;;;;;;;4.30;3.73;;;11.00;99.90;;;;;;640699;219;26561;-76
2022/01/03 01:09:59;;;;;;;6.13;3.57;;;10.80;99.90;;;;;;640405;224;26552;-76
2022/01/03 01:12:27;;;;;;;5.37;3.73;;;10.50;99.90;;;;;;640138;223;26548;-76
2022/01/03 01:14:55;;;;;;;4.80;3.67;;;10.50;99.90;;;;;;640290;224;26532;-76
2022/01/03 01:17:22;;;;;;;5.03;4.00;;;10.40;99.90;;;;;;640555;224;26482;-76
2022/01/03 01:19:49;;;;;;;6.43;3.70;;;10.30;99.90;;;;;;640612;219;26780;-76
2022/01/03 01:22:16;;;;;;;3.70;3.33;;;10.20;99.90;;;;;;640593;223;26742;-77
2022/01/03 01:24:49;;;;;;;5.17;2.93;;;10.10;99.90;;;;;;640623;219;26774;-78
2022/01/03 01:29:45;;;;;;;4.50;3.27;;;10.00;99.90;;;;;;640497;224;26842;-76
2022/01/03 01:32:13;;;;;;;3.47;3.20;;;10.20;99.90;;;;;;640463;224;26540;-76
2022/01/03 01:34:41;;;;;;;4.27;2.80;;;10.10;99.90;;;;;;640474;224;26484;-77
2022/01/03 01:37:09;;;;;;;3.80;3.50;;;10.30;99.90;;;;;;640207;224;26608;-78
2022/01/03 01:39:36;;;;;;;3.73;3.20;;;10.30;99.90;;;;;;640475;222;26553;-76
2022/01/03 01:42:03;;;;;;;3.27;3.07;;;10.20;99.90;;;;;;640510;224;26764;-77
2022/01/03 01:44:31;;;;;;;3.90;3.10;;;10.30;99.90;;;;;;641961;222;26524;-77
2022/01/03 01:46:59;;;;;;;3.50;3.20;;;10.30;99.90;;;;;;641749;223;26801;-77
2022/01/03 01:49:26;;;;;;;3.60;3.07;;;10.30;99.90;;;;;;641043;221;26814;-76
2022/01/03 01:52:02;;;;;;;4.70;3.37;;;10.50;99.90;;;;;;641488;223;27214;-76
2022/01/03 01:54:30;;;;;;;3.20;2.90;;;10.40;99.90;;;;;;641194;224;26526;-77
2022/01/03 01:57:15;;;;;;;4.23;2.83;;;10.40;99.90;;;;;;641119;224;26509;-78
2022/01/03 01:59:45;;;;;;;3.97;3.27;;;10.40;99.90;;;;;;633590;224;26570;-76
2022/01/03 02:02:12;;;;;;;3.43;3.13;;;10.40;99.90;;;;;;639532;224;26763;-76
2022/01/03 02:04:44;;;;;;;3.73;2.80;;;10.40;99.90;;;;;;640576;224;26559;-76
2022/01/03 02:07:16;;;;;;;3.17;2.97;;;10.20;99.90;;;;;;639674;222;26541;-76
2022/01/03 02:09:44;;;;;;;3.73;2.70;;;10.20;99.90;;;;;;641114;222;27133;-78
2022/01/03 02:12:12;;;;;;;4.77;2.83;;;10.10;99.90;;;;;;640717;224;26540;-79
2022/01/03 02:14:40;;;;;;;4.20;2.70;;;10.00;99.90;;;;;;641363;222;27104;-79
2022/01/03 02:17:07;;;;;;;2.83;2.63;;;10.00;99.90;;;;;;641174;223;26568;-78
2022/01/03 02:19:38;;;;;;;2.53;2.20;;;10.00;99.90;;;;;;640674;223;26828;-79
2022/01/03 02:22:05;;;;;;;2.80;2.57;;;10.00;99.90;;;;;;640531;224;26520;-79
2022/01/03 02:24:33;;;;;;;2.60;2.40;;;10.10;99.90;;;;;;640586;224;26995;-79
2022/01/03 02:27:00;;;;;;;2.50;2.23;;;10.10;99.90;;;;;;640644;224;27028;-79
2022/01/03 02:29:28;;;;;;;3.23;2.10;;;10.00;99.90;;;;;;640587;224;26547;-78
2022/01/03 02:31:56;;;;;;;2.20;2.10;;;10.10;99.90;;;;;;640628;224;26513;-79
2022/01/03 02:34:29;;;;;;;2.13;2.03;;;10.10;99.90;;;;;;640658;224;26516;-79
2022/01/03 02:36:51;;;;;;;2.07;1.90;;;10.10;99.90;;;;;;640259;224;26525;-79
2022/01/03 02:39:18;;;;;;;2.63;2.20;;;10.00;99.90;;;;;;640633;222;26548;-79
2022/01/03 02:41:45;;;;;;;2.20;2.00;;;9.90;99.90;;;;;;640602;224;26792;-78
2022/01/03 02:44:13;;;;;;;1.97;1.87;;;9.90;99.90;;;;;;640652;224;26504;-79
2022/01/03 02:46:40;;;;;;;2.07;1.97;;;9.80;99.90;;;;;;640612;224;27166;-79
2022/01/03 02:49:08;;;;;;;2.03;1.93;;;9.90;99.90;;;;;;640587;224;26547;-79
2022/01/03 02:51:36;;;;;;;2.03;1.90;;;9.90;99.90;;;;;;640669;224;26607;-78
2022/01/03 02:54:03;;;;;;;2.27;2.03;;;9.90;99.90;;;;;;640668;219;26792;-79
2022/01/03 02:56:32;;;;;;;1.83;1.73;;;10.00;99.90;;;;;;642478;219;26790;-79
2022/01/03 02:58:59;;;;;;;1.90;1.80;;;10.20;99.90;;;;;;641902;223;26515;-79
2022/01/03 03:01:27;;;;;;;2.03;1.90;;;10.00;99.90;;;;;;641549;223;26559;-78
2022/01/03 03:03:55;;;;;;;1.80;1.70;;;9.80;99.90;;;;;;641405;223;26570;-79
2022/01/03 03:06:22;;;;;;;1.83;1.73;;;9.80;99.90;;;;;;641102;224;26549;-79
2022/01/03 03:08:49;;;;;;;2.00;1.90;;;9.80;99.90;;;;;;629452;224;26518;-78
2022/01/03 03:11:16;;;;;;;1.73;1.70;;;9.80;99.90;;;;;;641150;223;26766;-79
2022/01/03 03:13:44;;;;;;;1.77;1.67;;;9.90;99.90;;;;;;640900;224;26557;-79
2022/01/03 03:16:12;;;;;;;1.40;1.30;;;9.80;99.90;;;;;;640795;224;26501;-79
2022/01/03 03:18:39;;;;;;;2.30;1.50;;;9.80;99.90;;;;;;640777;224;26557;-79
2022/01/03 03:21:07;;;;;;;1.83;1.67;;;10.00;99.90;;;;;;640341;224;26551;-79
2022/01/03 03:23:34;;;;;;;1.60;1.50;;;9.90;99.90;;;;;;640668;224;26805;-79
2022/01/03 03:26:01;;;;;;;1.80;1.70;;;10.00;99.90;;;;;;640580;224;26568;-79
2022/01/03 03:28:28;;;;;;;1.90;1.80;;;10.10;99.90;;;;;;640621;224;26766;-79
2022/01/03 03:30:58;;;;;;;1.60;1.50;;;9.90;99.90;;;;;;640498;221;26612;-79
2022/01/03 03:33:23;;;;;;;1.70;1.70;;;9.90;99.90;;;;;;640795;223;26547;-79
2022/01/03 03:35:51;;;;;;;1.80;1.50;;;9.80;99.90;;;;;;641037;224;26538;-80
2022/01/03 03:38:18;;;;;;;3.37;1.67;;;9.80;99.90;;;;;;641037;224;26738;-80
2022/01/03 03:40:47;;;;;;;2.47;1.70;;;9.70;99.90;;;;;;641032;224;26516;-79
2022/01/03 03:43:12;;;;;;;5.17;2.23;;;9.60;99.90;;;;;;640429;224;26788;-80
2022/01/03 03:45:40;;;;;;;2.20;2.00;;;9.40;99.90;;;;;;640381;224;26584;-79
2022/01/03 03:48:08;;;;;;;2.17;2.00;;;9.30;99.90;;;;;;640369;224;26527;-79
2022/01/03 03:50:35;;;;;;;2.57;1.90;;;9.20;99.90;;;;;;640336;224;26761;-79
2022/01/03 03:53:03;;;;;;;3.43;2.10;;;9.30;99.90;;;;;;640392;224;26505;-79
2022/01/03 03:55:31;;;;;;;3.40;1.97;;;9.30;99.90;;;;;;640152;224;27228;-79
2022/01/03 03:57:57;;;;;;;4.47;2.10;;;9.30;99.90;;;;;;640231;224;26563;-80
2022/01/03 04:00:24;;;;;;;3.23;2.10;;;9.20;99.90;;;;;;640390;224;26826;-79
2022/01/03 04:02:51;;;;;;;1.97;1.87;;;9.30;99.90;;;;;;640373;224;26527;-79
2022/01/03 04:05:18;;;;;;;3.07;1.90;;;9.40;99.90;;;;;;640615;224;26822;-80
2022/01/03 04:07:46;;;;;;;3.73;2.20;;;9.40;99.90;;;;;;642203;222;26555;-80
2022/01/03 04:10:16;;;;;;;2.63;2.10;;;9.50;99.90;;;;;;641853;224;26543;-79
2022/01/03 04:12:42;;;;;;;2.17;2.07;;;9.50;99.90;;;;;;641568;223;26538;-80
2022/01/03 04:15:09;;;;;;;4.13;2.03;;;9.40;99.90;;;;;;641483;223;26581;-80
2022/01/03 04:17:37;;;;;;;2.30;2.20;;;9.30;99.90;;;;;;641266;223;26509;-80
2022/01/03 04:20:05;;;;;;;2.50;2.30;;;9.30;99.90;;;;;;641186;223;26585;-79
2022/01/03 04:22:32;;;;;;;2.10;1.87;;;9.50;99.90;;;;;;641212;223;26779;-80
2022/01/03 04:24:59;;;;;;;5.20;1.97;;;9.40;99.90;;;;;;641054;223;26512;-80
2022/01/03 04:27:26;;;;;;;2.47;2.00;;;9.40;99.90;;;;;;640855;224;26834;-79
2022/01/03 04:29:54;;;;;;;1.67;1.60;;;9.20;99.90;;;;;;640800;222;26603;-79
2022/01/03 04:32:22;;;;;;;1.90;1.80;;;9.10;99.90;;;;;;640772;224;26544;-79
2022/01/03 04:34:50;;;;;;;2.57;1.63;;;9.00;99.90;;;;;;640726;224;26616;-79
2022/01/03 04:37:17;;;;;;;1.63;1.57;;;9.00;99.90;;;;;;640740;224;26866;-79
2022/01/03 04:39:45;;;;;;;1.80;1.60;;;8.90;99.90;;;;;;640797;223;26826;-79
2022/01/03 04:42:12;;;;;;;1.63;1.53;;;9.00;99.90;;;;;;640777;224;26820;-79
2022/01/03 04:44:40;;;;;;;1.37;1.30;;;9.00;99.90;;;;;;640499;224;26504;-78
2022/01/03 04:47:08;;;;;;;2.37;1.47;;;8.80;99.90;;;;;;640561;224;26516;-78
2022/01/03 04:49:35;;;;;;;0.90;0.90;;;8.80;99.90;;;;;;640504;224;27191;-79
2022/01/03 04:52:02;;;;;;;1.20;1.10;;;8.70;99.90;;;;;;640532;224;26559;-79
2022/01/03 04:54:29;;;;;;;1.07;1.03;;;8.60;99.90;;;;;;640571;224;26520;-79
2022/01/03 04:56:59;;;;;;;1.20;1.10;;;8.60;99.90;;;;;;640574;224;27163;-80
2022/01/03 04:59:24;;;;;;;1.00;1.00;;;8.60;99.90;;;;;;640607;224;26524;-79
2022/01/03 05:01:51;;;;;;;0.97;0.97;;;8.60;99.90;;;;;;640558;224;26528;-79
2022/01/03 05:04:19;;;;;;;1.57;1.20;;;8.70;99.90;;;;;;640521;224;26520;-79
2022/01/03 05:06:46;;;;;;;0.90;0.90;;;8.70;99.90;;;;;;640548;224;26777;-79
2022/01/03 05:09:13;;;;;;;2.47;1.00;;;8.70;99.90;;;;;;640487;224;26554;-79
2022/01/03 05:11:42;;;;;;;2.00;1.00;;;8.80;99.90;;;;;;640534;224;26801;-79
2022/01/03 05:14:09;;;;;;;1.10;1.10;;;8.80;99.90;;;;;;640416;224;26533;-79
2022/01/03 05:16:36;;;;;;;1.87;1.30;;;8.80;99.90;;;;;;640530;224;26523;-80
2022/01/03 05:19:03;;;;;;;1.23;1.13;;;8.80;99.90;;;;;;641812;222;26567;-79
2022/01/03 05:21:30;;;;;;;1.20;1.10;;;8.90;99.90;;;;;;641779;223;26560;-80
2022/01/03 05:23:57;;;;;;;1.10;1.10;;;8.80;99.90;;;;;;641486;223;27216;-79
2022/01/03 05:26:25;;;;;;;0.93;0.93;;;8.80;99.90;;;;;;641475;223;26557;-80
2022/01/03 05:28:53;;;;;;;1.03;1.03;;;8.90;99.90;;;;;;641128;222;27180;-80
2022/01/03 05:31:20;;;;;;;0.93;0.93;;;8.80;99.90;;;;;;641170;223;26513;-79
2022/01/03 05:33:47;;;;;;;1.17;1.10;;;8.70;99.90;;;;;;641105;224;26525;-79
2022/01/03 05:36:15;;;;;;;1.10;1.10;;;8.40;99.90;;;;;;641016;223;26562;-79
2022/01/03 05:38:43;;;;;;;1.10;1.10;;;8.40;99.90;;;;;;640924;223;26543;-79
2022/01/03 05:41:09;;;;;;;1.20;1.20;;;8.40;99.90;;;;;;640826;223;26806;-79
2022/01/03 05:43:37;;;;;;;1.40;1.30;;;8.40;99.90;;;;;;640810;223;26821;-80
2022/01/03 05:46:04;;;;;;;1.47;1.20;;;8.30;99.90;;;;;;640865;218;26551;-78
2022/01/03 05:48:31;;;;;;;1.20;1.20;;;8.30;99.90;;;;;;640925;224;26552;-79
2022/01/03 05:50:59;;;;;;;1.53;1.40;;;8.30;99.90;;;;;;640844;221;26580;-78
2022/01/03 05:53:26;;;;;;;1.70;1.60;;;8.20;99.90;;;;;;640696;224;26907;-79
2022/01/03 05:55:53;;;;;;;2.07;1.50;;;8.30;99.90;;;;;;640461;224;26516;-80
2022/01/03 05:58:20;;;;;;;2.73;2.00;;;8.10;99.90;;;;;;640369;224;27214;-78
2022/01/03 06:00:48;;;;;;;2.87;2.67;;;8.10;99.90;;;;;;640443;224;26548;-79
2022/01/03 06:03:19;;;;;;;2.50;2.30;;;8.10;99.90;;;;;;640440;224;26572;-79
2022/01/03 06:06:05;;;;;;;4.37;2.30;;;8.20;99.90;;;;;;640019;224;26570;-79
2022/01/03 06:08:10;;;;;;;3.07;2.77;;;8.20;99.90;;;;;;638478;224;26804;-79
2022/01/03 06:10:39;;;;;;;3.20;2.30;;;8.30;99.90;;;;;;640426;221;26527;-79
2022/01/03 06:13:06;;;;;;;2.90;2.40;;;8.30;99.90;;;;;;640137;224;26584;-79
2022/01/03 06:15:33;;;;;;;3.03;2.70;;;8.30;99.90;;;;;;640368;224;27222;-78
2022/01/03 06:18:01;;;;;;;5.63;2.40;;;8.20;99.90;;;;;;640317;223;26515;-79
2022/01/03 06:20:31;;;;;;;3.10;2.30;;;8.20;99.90;;;;;;640368;224;26604;-79
2022/01/03 06:22:56;;;;;;;6.27;2.40;;;8.20;99.90;;;;;;640354;224;26592;-79
2022/01/03 06:25:23;;;;;;;5.37;2.83;;;8.20;99.90;;;;;;640353;224;26511;-79
2022/01/03 06:27:51;;;;;;;4.23;2.43;;;8.30;99.90;;;;;;640319;224;26862;-78
2022/01/03 06:30:18;;;;;;;5.13;2.63;;;8.20;99.90;;;;;;641286;222;26627;-79
2022/01/03 06:32:45;;;;;;;3.53;2.67;;;8.40;99.90;;;;;;641651;223;26555;-79
2022/01/03 06:35:12;;;;;;;5.97;3.53;;;8.40;99.90;;;;;;641516;223;26602;-80
2022/01/03 06:37:39;;;;;;;5.50;3.33;;;8.50;99.90;;;;;;641617;223;26567;-80
2022/01/03 06:40:07;;;;;;;6.60;3.30;;;8.50;99.90;;;;;;641163;223;26906;-80
2022/01/03 06:42:34;;;;;;;6.57;3.60;;;8.50;99.90;;;;;;641069;223;26580;-79
2022/01/03 06:45:02;;;;;;;6.13;3.27;;;8.60;99.90;;;;;;641147;223;26871;-76
2022/01/03 06:47:30;;;;;;;6.43;2.93;;;8.80;99.90;;;;;;641109;223;26513;-76
2022/01/03 06:49:57;;;;;;;4.77;3.13;;;8.90;99.90;;;;;;640843;222;26598;-76
2022/01/03 06:52:25;;;;;;;5.03;3.93;;;8.90;99.90;;;;;;640956;224;27343;-77
2022/01/03 06:54:52;;;;;;;5.43;3.30;;;8.90;99.90;;;;;;640936;224;26603;-77
2022/01/03 06:57:19;;;;;;;7.33;3.20;;;8.90;99.90;;;;;;640911;224;26857;-77
2022/01/03 06:59:47;;;;;;;8.77;3.00;;;8.90;99.90;;;;;;640858;221;26624;-77
2022/01/03 07:02:15;;;;;;;7.30;3.10;;;8.90;99.90;;;;;;641006;224;26831;-77
2022/01/03 07:04:42;;;;;;;6.30;2.60;;;8.90;99.90;;;;;;640914;224;26560;-77
2022/01/03 07:07:09;;;;;;;7.40;3.13;;;9.10;99.90;;;;;;640629;223;26580;-77
2022/01/03 07:09:37;;;;;;;6.40;3.03;;;9.10;99.90;;;;;;640493;224;27269;-76
2022/01/03 07:12:05;;;;;;;9.27;3.17;;;9.30;99.90;;;;;;640560;219;26619;-77
2022/01/03 07:19:51;;;;;;;7.70;3.10;;;9.50;99.90;;;;;;640570;224;26594;-77
2022/01/03 07:22:18;;;;;;;7.90;2.77;;;9.70;99.90;;;;;;640581;224;26647;-78
2022/01/03 07:24:45;;;;;;;6.77;2.47;;;10.10;99.90;;;;;;640758;224;26758;-76
2022/01/03 07:27:13;;;;;;;7.00;2.57;;;10.10;99.90;;;;;;640544;224;26552;-77
2022/01/03 07:29:41;;;;;;;5.37;2.87;;;10.20;99.90;;;;;;640533;221;26612;-77
2022/01/03 07:32:09;;;;;;;8.63;2.60;;;9.90;99.90;;;;;;640610;224;26613;-76
2022/01/03 07:34:36;;;;;;;6.47;2.73;;;9.90;99.90;;;;;;640421;219;26519;-76
2022/01/03 07:37:03;;;;;;;6.40;2.43;;;9.70;99.90;;;;;;640549;224;26579;-77
2022/01/03 07:39:31;;;;;;;5.00;2.30;;;9.80;99.90;;;;;;640535;224;26572;-77
2022/01/03 07:41:58;;;;;;;8.40;3.20;;;9.90;99.90;;;;;;641766;222;26803;-76
2022/01/03 07:44:25;;;;;;;5.57;2.50;;;9.60;99.90;;;;;;641779;223;26592;-77
2022/01/03 07:46:54;;;;;;;6.03;2.20;;;9.60;99.90;;;;;;641455;223;26844;-76
2022/01/03 07:49:21;;;;;;;6.10;2.50;;;9.40;99.90;;;;;;641310;224;26797;-77
2022/01/03 07:51:48;;;;;;;7.93;2.83;;;9.70;99.90;;;;;;641177;224;26530;-77
2022/01/03 07:54:15;;;;;;;7.87;2.60;;;9.70;99.90;;;;;;641053;223;26534;-77
2022/01/03 07:56:42;;;;;;;9.00;2.63;;;9.70;99.90;;;;;;641075;224;26556;-77
2022/01/03 07:59:10;;;;;;;8.33;2.57;;;9.60;99.90;;;;;;640937;223;26820;-77
2022/01/03 08:01:40;;;;;;;4.03;2.80;;;9.60;99.90;;;;;;640905;223;26816;-77
2022/01/03 08:04:04;;;;;;;8.70;2.50;;;9.70;99.90;;;;;;640614;224;26563;-77
2022/01/03 08:06:31;;;;;;;6.77;2.57;;;9.80;99.90;;;;;;640856;223;26623;-77
2022/01/03 08:08:58;;;;;;;8.17;2.50;;;9.80;99.90;;;;;;640786;224;27240;-77
2022/01/03 08:11:26;;;;;;;7.30;2.53;;;10.20;99.90;;;;;;640865;223;26582;-77
2022/01/03 08:13:54;;;;;;;9.43;2.93;;;10.10;99.90;;;;;;640906;224;26580;-77
2022/01/03 08:16:22;;;;;;;5.37;2.90;;;10.20;99.90;;;;;;640947;223;26571;-77
2022/01/03 08:18:50;;;;;;;7.33;3.27;;;10.20;99.90;;;;;;640639;221;26579;-77
2022/01/03 08:21:17;;;;;;;6.57;2.87;;;10.20;99.90;;;;;;640660;224;26565;-77
2022/01/03 08:23:45;;;;;;;7.17;2.60;;;9.80;99.90;;;;;;640630;224;26561;-77
2022/01/03 08:26:12;;;;;;;9.47;2.87;;;9.60;99.90;;;;;;640549;224;26797;-77
2022/01/03 08:28:39;;;;;;;7.30;2.77;;;9.60;99.90;;;;;;640647;224;26562;-77
2022/01/03 08:31:06;;;;;;;11.23;2.57;;;9.60;99.90;;;;;;640627;224;26604;-77
2022/01/03 08:33:33;;;;;;;7.53;3.00;;;9.70;99.90;;;;;;640672;224;26569;-77
2022/01/03 08:36:01;;;;;;;9.10;3.00;;;9.50;99.90;;;;;;640580;224;26509;-77
2022/01/03 08:38:28;;;;;;;5.30;2.73;;;9.50;99.90;;;;;;640606;224;26795;-77
2022/01/03 08:40:55;;;;;;;10.77;2.87;;;9.30;99.90;;;;;;640540;224;26612;-77
2022/01/03 08:43:23;;;;;;;12.60;3.20;;;9.30;99.90;;;;;;640528;224;26827;-78
2022/01/03 08:45:49;;;;;;;8.60;2.90;;;9.50;99.90;;;;;;640538;224;26557;-77
2022/01/03 08:48:16;;;;;;;7.43;2.90;;;9.60;99.90;;;;;;640589;224;26568;-78
2022/01/03 08:50:44;;;;;;;11.13;3.13;;;9.60;99.90;;;;;;640522;222;26623;-78
2022/01/03 08:53:11;;;;;;;7.40;2.83;;;9.80;99.90;;;;;;641504;222;26572;-77
2022/01/03 08:55:38;;;;;;;6.43;2.90;;;10.00;99.90;;;;;;641988;223;26813;-77
2022/01/03 08:58:05;;;;;;;9.40;2.80;;;10.00;99.90;;;;;;641573;222;26585;-77
2022/01/03 09:00:32;;;;;;;8.30;3.10;;;10.00;99.90;;;;;;641401;223;26825;-77
2022/01/03 09:03:00;;;;;;;10.53;2.90;;;9.80;99.90;;;;;;641235;223;26510;-77
2022/01/03 09:05:27;;;;;;;10.17;3.43;;;9.90;99.90;;;;;;641116;224;26892;-77
2022/01/03 09:07:55;;;;;;;11.83;3.00;;;10.30;99.90;;;;;;641114;223;26812;-81
2022/01/03 09:10:23;;;;;;;8.93;2.90;;;10.50;99.90;;;;;;641028;221;26540;-82
2022/01/03 09:12:51;;;;;;;7.10;2.90;;;10.60;99.90;;;;;;640833;223;26568;-77
2022/01/03 09:15:19;;;;;;;9.83;2.87;;;10.60;99.90;;;;;;640916;224;26627;-76
2022/01/03 09:17:48;;;;;;;9.40;2.90;;;10.60;99.90;;;;;;640848;219;26562;-77
2022/01/03 09:20:15;;;;;;;5.07;2.70;;;10.50;99.90;;;;;;640710;224;26580;-76
2022/01/03 09:22:46;;;;;;;7.63;2.93;;;10.50;99.90;;;;;;640727;223;26568;-77
2022/01/03 09:30:16;;;;;;;11.37;3.20;;;10.30;99.90;;;;;;640614;223;26584;-77
2022/01/03 09:32:44;;;;;;;9.93;3.23;;;10.90;99.90;;;;;;640509;224;26570;-77
2022/01/03 09:35:11;;;;;;;9.63;3.20;;;10.90;99.90;;;;;;640570;224;26590;-77
2022/01/03 09:37:40;;;;;;;9.60;3.03;;;11.20;99.90;;;;;;640663;224;26516;-78
2022/01/03 09:40:06;;;;;;;11.47;2.60;;;11.10;99.90;;;;;;640455;221;26828;-77
2022/01/03 09:42:34;;;;;;;12.30;3.13;;;11.30;99.90;;;;;;640547;219;26575;-78
2022/01/03 09:45:05;;;;;;;10.23;3.23;;;10.90;99.90;;;;;;640471;224;26525;-78
2022/01/03 09:47:32;;;;;;;8.23;2.70;;;10.60;99.90;;;;;;640550;224;26743;-78
2022/01/03 09:49:59;;;;;;;9.00;3.10;;;10.80;99.90;;;;;;638794;224;26585;-77
2022/01/03 09:52:26;;;;;;;5.63;2.80;;;11.00;99.90;;;;;;638678;224;26796;-77
2022/01/03 09:54:54;;;;;;;7.67;2.83;;;11.10;99.90;;;;;;638901;222;26540;-78
2022/01/03 09:57:22;;;;;;;7.40;2.87;;;11.10;99.90;;;;;;647332;222;26803;-79
2022/01/03 09:59:49;;;;;;;8.83;2.93;;;11.10;99.90;;;;;;647228;222;26598;-78
2022/01/03 10:02:17;;;;;;;10.90;2.63;;;10.90;99.90;;;;;;647247;222;26790;-78
2022/01/03 10:04:44;;;;;;;7.63;2.90;;;11.10;99.90;;;;;;648111;220;26561;-78
2022/01/03 10:07:11;;;;;;;8.27;3.00;;;11.10;99.90;;;;;;644593;221;26776;-78
2022/01/03 10:09:38;;;;;;;11.03;2.93;;;11.10;99.90;;;;;;637903;225;26595;-78
2022/01/03 10:12:06;;;;;;;5.37;2.37;;;11.10;99.90;;;;;;637995;223;26790;-77
2022/01/03 10:14:33;;;;;;;5.53;3.00;;;11.10;99.90;;;;;;637737;224;26579;-77
2022/01/03 10:17:00;;;;;;;9.07;2.70;;;10.90;99.90;;;;;;637582;225;26780;-77
2022/01/03 10:19:27;;;;;;;10.57;2.80;;;10.80;99.90;;;;;;637483;224;26535;-77
2022/01/03 10:21:55;;;;;;;6.10;3.23;;;10.70;99.90;;;;;;637429;224;26803;-77
2022/01/03 10:24:31;;;;;;;9.20;3.03;;;11.10;99.90;;;;;;637265;224;26563;-77
2022/01/03 10:26:58;;;;;;;13.57;2.93;;;11.10;99.90;;;;;;637259;225;26589;-77
2022/01/03 10:29:26;;;;;;;8.43;2.47;;;11.10;99.90;;;;;;637350;221;27128;-77
2022/01/03 10:31:53;;;;;;;8.77;2.83;;;11.20;99.90;;;;;;637396;224;26785;-77
2022/01/03 10:34:21;;;;;;;9.43;3.57;;;11.40;99.90;;;;;;637355;224;26880;-77
2022/01/03 10:36:47;;;;;;;10.73;3.53;;;11.70;99.90;;;;;;637338;224;26594;-77
2022/01/03 10:39:16;;;;;;;13.43;3.80;;;11.60;99.90;;;;;;637535;224;27313;-77
2022/01/03 10:41:44;;;;;;;11.50;3.30;;;11.50;99.90;;;;;;637293;221;26768;-77
2022/01/03 10:44:12;;;;;;;13.27;3.60;;;12.20;99.90;;;;;;636900;226;26569;-77
2022/01/03 10:46:40;;;;;;;10.57;3.57;;;12.00;99.90;;;;;;634674;225;26586;-77
2022/01/03 10:49:09;;;;;;;8.10;3.00;;;11.90;99.90;;;;;;644735;222;26533;-77
2022/01/03 10:51:38;;;;;;;10.90;3.17;;;12.20;99.90;;;;;;637100;222;26589;-77
2022/01/03 10:54:06;;;;;;;5.73;3.40;;;12.20;99.90;;;;;;640439;224;26828;-77
2022/01/03 10:56:35;;;;;;;8.47;3.83;;;12.30;99.90;;;;;;640339;224;26793;-77
2022/01/03 10:59:02;;;;;;;13.27;3.87;;;11.90;99.90;;;;;;640381;224;26583;-77
2022/01/03 11:01:30;;;;;;;11.87;3.97;;;11.60;99.90;;;;;;639319;222;26524;-77
2022/01/03 11:03:59;;;;;;;13.00;4.07;;;11.50;99.90;;;;;;639873;222;26838;-77
2022/01/03 11:06:46;;;;;;;13.73;4.10;;;11.80;99.90;;;;;;640448;221;26508;-77
2022/01/03 11:11:38;;;;;;;8.93;4.03;;;11.70;99.90;;;;;;637117;222;26838;-78
2022/01/03 11:14:05;;;;;;;13.03;4.17;;;11.80;99.90;;;;;;640061;221;26790;-78
2022/01/03 11:16:32;;;;;;;16.97;4.97;;;11.90;99.90;;;;;;651062;219;26522;-78
2022/01/03 11:18:59;;;;;;;12.43;4.03;;;11.70;99.90;;;;;;645840;220;26762;-77
2022/01/03 11:21:28;;;;;;;11.37;4.13;;;11.60;99.90;;;;;;638326;223;26559;-78
2022/01/03 11:24:14;;;;;;;11.07;4.30;;;11.50;99.90;;;;;;640728;221;26790;-78
2022/01/03 11:26:46;;;;;;;11.40;4.13;;;12.00;99.90;;;;;;639874;221;26598;-78
2022/01/03 11:29:09;;;;;;;9.77;3.90;;;11.80;99.90;;;;;;641380;222;26861;-78
2022/01/03 11:31:39;;;;;;;11.53;3.83;;;11.80;99.90;;;;;;640230;224;26892;-87
2022/01/03 11:34:04;;;;;;;10.97;5.00;;;11.80;99.90;;;;;;644782;222;26595;-82
2022/01/03 11:36:31;;;;;;;10.43;4.60;;;11.60;99.90;;;;;;645849;222;27112;-82
2022/01/03 11:38:59;;;;;;;11.53;4.40;;;11.80;99.90;;;;;;647578;217;26596;-83
2022/01/03 11:41:26;;;;;;;11.43;4.30;;;11.80;99.90;;;;;;649962;221;26786;-83
2022/01/03 11:43:53;;;;;;;11.40;4.73;;;11.40;99.90;;;;;;650395;221;26518;-83
2022/01/03 11:46:20;;;;;;;12.90;4.73;;;11.30;99.90;;;;;;650495;221;27444;-80
2022/01/03 11:48:47;;;;;;;8.13;4.17;;;11.50;99.90;;;;;;642367;221;26613;-77
2022/01/03 11:51:15;;;;;;;12.53;4.03;;;11.70;99.90;;;;;;641718;222;27015;-76
2022/01/03 11:53:43;;;;;;;12.53;4.80;;;11.60;99.90;;;;;;641479;222;26562;-76
2022/01/03 11:56:10;;;;;;;13.73;4.30;;;11.80;99.90;;;;;;643634;222;26542;-77
2022/01/03 12:04:13;;;;;;;13.43;4.60;;;11.50;99.90;;;;;;640924;222;26553;-77
2022/01/03 12:06:40;;;;;;;11.53;4.60;;;11.30;99.90;;;;;;640183;222;26837;-77
2022/01/03 12:09:08;;;;;;;14.27;4.43;;;11.20;99.90;;;;;;639098;221;26607;-77
2022/01/03 12:11:35;;;;;;;10.77;4.37;;;11.10;99.90;;;;;;638118;221;26578;-78
2022/01/03 12:14:09;;;;;;;11.23;4.10;;;11.20;99.90;;;;;;640499;222;26580;-79
2022/01/03 12:16:43;;;;;;;12.37;4.17;;;11.80;99.90;;;;;;640092;224;26572;-79
2022/01/03 12:19:12;;;;;;;12.80;4.87;;;11.80;99.90;;;;;;640531;224;26609;-79
2022/01/03 12:21:56;;;;;;;10.67;4.43;;;11.90;99.90;;;;;;640065;224;26536;-78
2022/01/03 12:24:42;;;;;;;9.90;4.43;;;12.30;99.90;;;;;;637628;221;26587;-78
2022/01/03 12:27:26;;;;;;;12.37;4.10;;;12.30;99.90;;;;;;644957;220;26569;-78
2022/01/03 12:30:10;;;;;;;12.77;4.57;;;12.30;99.90;;;;;;648793;221;26828;-78
2022/01/03 12:32:38;;;;;;;11.40;4.40;;;12.20;99.90;;;;;;645811;220;26838;-78
2022/01/03 12:35:24;;;;;;;12.50;4.10;;;12.40;99.90;;;;;;641517;224;26816;-79
2022/01/03 12:38:14;;;;;;;9.23;3.70;;;12.30;99.90;;;;;;638680;224;26495;-78
2022/01/03 12:40:46;;;;;;;12.13;4.10;;;12.10;99.90;;;;;;638458;221;27262;-78
2022/01/03 12:43:14;;;;;;;13.87;4.60;;;11.50;99.90;;;;;;641171;224;26508;-79
2022/01/03 12:45:51;;;;;;;13.07;3.50;;;11.70;99.90;;;;;;641143;219;26571;-81
2022/01/03 12:48:19;;;;;;;11.43;4.50;;;11.70;99.90;;;;;;640258;224;26801;-77
2022/01/03 12:51:05;;;;;;;11.90;4.30;;;11.90;99.90;;;;;;638547;221;26585;-78
2022/01/03 12:53:40;;;;;;;7.30;3.50;;;11.90;99.90;;;;;;639706;222;26601;-78
2022/01/03 12:56:09;;;;;;;13.03;4.03;;;11.90;99.90;;;;;;638329;224;26814;-78
2022/01/03 12:58:37;;;;;;;9.93;4.00;;;11.80;99.90;;;;;;637559;223;26584;-77
2022/01/03 13:01:08;;;;;;;12.97;3.67;;;11.90;99.90;;;;;;640059;224;27003;-78
2022/01/03 13:03:50;;;;;;;13.03;4.77;;;11.80;99.90;;;;;;639739;223;26601;-77
2022/01/03 13:06:18;;;;;;;11.63;4.27;;;11.90;99.90;;;;;;640537;224;26503;-77
2022/01/03 13:09:05;;;;;;;10.83;4.13;;;11.80;99.90;;;;;;637183;223;26810;-76
2022/01/03 13:11:33;;;;;;;13.20;4.50;;;11.70;99.90;;;;;;641279;221;26830;-77
2022/01/03 13:14:09;;;;;;;12.07;3.67;;;11.70;99.90;;;;;;647173;222;26558;-77